createdAt,value
2022-11-18T00:01:21.780Z,67.00
2022-11-18T00:03:50.915Z,66.71
2022-11-18T00:06:22.235Z,66.58
2022-11-18T00:08:50.697Z,66.82
2022-11-18T00:11:42.784Z,66.92
2022-11-18T00:14:25.071Z,66.98
2022-11-18T00:16:58.485Z,67.27
2022-11-18T00:19:27.730Z,67.61
2022-11-18T00:21:55.804Z,67.32
2022-11-18T00:24:24.256Z,67.35
2022-11-18T00:26:51.909Z,67.16
2022-11-18T00:29:20.337Z,67.83
2022-11-18T00:31:48.601Z,67.93
2022-11-18T00:34:18.172Z,68.19
2022-11-18T00:36:47.051Z,68.73
2022-11-18T00:39:17.442Z,67.66
2022-11-18T00:42:04.940Z,67.01
2022-11-18T00:44:33.161Z,66.86
2022-11-18T00:47:00.847Z,66.70
2022-11-18T00:49:28.823Z,66.68
2022-11-18T00:51:56.471Z,66.84
2022-11-18T00:54:24.365Z,67.17
2022-11-18T00:56:51.971Z,66.76
2022-11-18T00:59:20.329Z,67.26
2022-11-18T01:01:49.094Z,67.31
2022-11-18T01:04:17.649Z,67.17
2022-11-18T01:06:45.446Z,66.84
2022-11-18T01:09:13.349Z,67.25
2022-11-18T01:11:59.737Z,67.41
2022-11-18T01:14:27.667Z,67.43
2022-11-18T01:16:56.972Z,68.13
2022-11-18T01:19:25.424Z,68.50
2022-11-18T01:21:53.751Z,68.92
2022-11-18T01:24:21.643Z,69.13
2022-11-18T01:26:49.261Z,69.21
2022-11-18T01:29:18.267Z,69.15
2022-11-18T01:32:09.258Z,68.87
2022-11-18T01:34:34.014Z,67.85
2022-11-18T01:37:01.610Z,68.76
2022-11-18T01:39:29.592Z,68.85
2022-11-18T01:41:57.204Z,69.34
2022-11-18T01:44:58.391Z,69.89
2022-11-18T01:47:33.752Z,69.63
2022-11-18T01:50:01.906Z,69.60
2022-11-18T01:52:31.062Z,69.51
2022-11-18T01:55:05.353Z,69.41
2022-11-18T01:57:33.223Z,69.82
2022-11-18T02:00:05.177Z,69.80
2022-11-18T02:02:36.484Z,69.92
2022-11-18T02:05:07.564Z,69.89
2022-11-18T02:07:39.010Z,69.65
2022-11-18T02:10:08.011Z,70.06
2022-11-18T02:12:37.358Z,69.83
2022-11-18T02:15:05.744Z,70.24
2022-11-18T02:18:06.290Z,69.64
2022-11-18T02:20:45.930Z,69.24
2022-11-18T02:23:35.076Z,69.45
2022-11-18T02:26:21.423Z,69.55
2022-11-18T02:29:10.537Z,69.64
2022-11-18T02:31:44.280Z,70.10
2022-11-18T02:34:28.362Z,70.18
2022-11-18T02:37:05.006Z,70.19
2022-11-18T02:42:46.772Z,69.94
2022-11-18T02:45:18.436Z,70.16
2022-11-18T02:47:49.791Z,70.29
2022-11-18T02:50:23.570Z,70.40
2022-11-18T02:52:58.706Z,70.28
2022-11-18T02:55:29.889Z,70.78
2022-11-18T02:57:58.761Z,70.89
2022-11-18T03:00:26.789Z,70.90
2022-11-18T03:02:54.471Z,70.69
2022-11-18T03:05:22.315Z,71.07
2022-11-18T03:07:55.892Z,71.33
2022-11-18T03:10:25.586Z,71.50
2022-11-18T03:13:14.504Z,71.00
2022-11-18T03:16:05.995Z,71.35
2022-11-18T03:18:54.328Z,71.40
2022-11-18T03:21:28.876Z,71.48
2022-11-18T03:24:23.171Z,71.17
2022-11-18T03:27:05.893Z,71.17
2022-11-18T03:29:40.272Z,70.87
2022-11-18T03:32:32.818Z,71.25
2022-11-18T03:35:07.954Z,71.78
2022-11-18T03:37:38.405Z,71.37
2022-11-18T03:40:22.759Z,70.48
2022-11-18T03:42:56.823Z,69.74
2022-11-18T03:45:39.533Z,69.63
2022-11-18T03:48:16.455Z,69.90
2022-11-18T03:50:56.932Z,70.33
2022-11-18T03:53:27.843Z,70.84
2022-11-18T03:56:03.419Z,71.25
2022-11-18T03:58:47.602Z,71.33
2022-11-18T04:01:35.309Z,71.54
2022-11-18T04:04:03.428Z,71.89
2022-11-18T04:06:42.232Z,72.17
2022-11-18T04:09:15.549Z,72.30
2022-11-18T04:12:05.111Z,72.12
2022-11-18T04:14:35.972Z,72.42
2022-11-18T04:17:27.849Z,72.92
2022-11-18T04:19:56.099Z,73.73
2022-11-18T04:22:23.729Z,74.45
2022-11-18T04:24:51.716Z,74.23
2022-11-18T04:27:19.749Z,74.98
2022-11-18T04:29:47.651Z,75.09
2022-11-18T04:32:15.347Z,75.33
2022-11-18T04:34:43.306Z,75.14
2022-11-18T04:37:10.919Z,75.56
2022-11-18T04:39:38.898Z,75.41
2022-11-18T04:42:06.661Z,75.28
2022-11-18T04:44:35.442Z,75.67
2022-11-18T04:47:05.333Z,75.77
2022-11-18T04:49:34.469Z,75.97
2022-11-18T04:52:03.016Z,75.78
2022-11-18T04:54:31.350Z,76.00
2022-11-18T04:56:59.306Z,77.01
2022-11-18T04:59:29.854Z,77.16
2022-11-18T05:01:58.382Z,77.16
2022-11-18T05:04:30.238Z,77.39
2022-11-18T05:06:58.818Z,78.88
2022-11-18T05:09:31.778Z,79.37
2022-11-18T05:12:19.935Z,79.44
2022-11-18T05:14:50.621Z,79.54
2022-11-18T05:17:19.869Z,80.48
2022-11-18T05:19:47.917Z,80.95
2022-11-18T05:22:16.019Z,81.77
2022-11-18T05:24:44.016Z,81.91
2022-11-18T05:27:12.593Z,82.85
2022-11-18T05:29:40.517Z,82.91
2022-11-18T05:32:08.591Z,82.91
2022-11-18T05:34:36.621Z,82.54
2022-11-18T05:37:04.512Z,82.25
2022-11-18T05:39:34.960Z,82.44
2022-11-18T05:42:21.508Z,82.08
2022-11-18T05:44:56.384Z,81.70
2022-11-18T05:47:25.549Z,81.68
2022-11-18T05:49:53.491Z,82.40
2022-11-18T05:52:21.142Z,81.86
2022-11-18T05:54:51.042Z,81.84
2022-11-18T05:57:18.794Z,81.97
2022-11-18T05:59:46.746Z,82.15
2022-11-18T06:02:24.703Z,82.14
2022-11-18T06:05:02.808Z,81.80
2022-11-18T06:07:39.673Z,81.84
2022-11-18T06:10:12.919Z,82.27
2022-11-18T06:12:45.796Z,82.38
2022-11-18T06:15:22.960Z,82.32
2022-11-18T06:18:03.945Z,82.42
2022-11-18T06:20:35.388Z,82.96
2022-11-18T06:23:03.076Z,82.19
2022-11-18T06:25:31.516Z,82.21
2022-11-18T06:28:02.450Z,82.71
2022-11-18T06:30:30.420Z,82.62
2022-11-18T06:32:58.151Z,82.51
2022-11-18T06:35:26.067Z,81.94
2022-11-18T06:37:53.742Z,82.17
2022-11-18T06:40:21.688Z,81.84
2022-11-18T06:43:08.064Z,82.19
2022-11-18T06:45:36.327Z,82.58
2022-11-18T06:48:04.336Z,83.02
2022-11-18T06:50:32.444Z,83.39
2022-11-18T06:53:02.900Z,84.24
2022-11-18T06:55:30.872Z,84.37
2022-11-18T06:57:58.584Z,84.39
2022-11-18T07:00:26.516Z,84.56
2022-11-18T07:02:54.158Z,84.99
2022-11-18T07:05:22.137Z,85.16
2022-11-18T07:07:49.818Z,84.24
2022-11-18T07:10:17.836Z,84.76
2022-11-18T07:12:45.476Z,84.42
2022-11-18T07:15:13.845Z,85.02
2022-11-18T07:17:41.509Z,85.16
2022-11-18T07:20:10.002Z,84.99
2022-11-18T07:22:37.713Z,85.21
2022-11-18T07:25:06.013Z,85.12
2022-11-18T07:27:33.651Z,84.77
2022-11-18T07:30:01.624Z,84.54
2022-11-18T07:32:29.414Z,84.59
2022-11-18T07:34:57.707Z,84.38
2022-11-18T07:37:25.435Z,83.93
2022-11-18T07:39:53.366Z,82.86
2022-11-18T07:42:21.120Z,82.56
2022-11-18T07:44:49.135Z,82.14
2022-11-18T07:47:16.803Z,82.12
2022-11-18T07:49:44.746Z,80.62
2022-11-18T07:52:12.519Z,80.08
2022-11-18T07:54:40.476Z,79.86
2022-11-18T07:57:08.148Z,79.57
2022-11-18T07:59:36.089Z,79.46
2022-11-18T08:02:03.896Z,79.65
2022-11-18T08:04:32.067Z,79.27
2022-11-18T08:06:59.773Z,78.86
2022-11-18T08:09:27.669Z,78.27
2022-11-18T08:11:55.381Z,77.66
2022-11-18T08:14:24.281Z,76.75
2022-11-18T08:16:52.040Z,76.49
2022-11-18T08:19:20.185Z,76.76
2022-11-18T08:21:48.090Z,76.08
2022-11-18T08:24:16.047Z,76.32
2022-11-18T08:26:43.760Z,76.42
2022-11-18T08:29:11.717Z,76.59
2022-11-18T08:31:39.415Z,75.75
2022-11-18T08:34:07.884Z,75.44
2022-11-18T08:36:37.898Z,75.05
2022-11-18T08:39:08.927Z,74.82
2022-11-18T08:41:39.867Z,74.49
2022-11-18T08:44:11.724Z,74.31
2022-11-18T08:46:39.742Z,74.37
2022-11-18T08:49:07.773Z,74.63
2022-11-18T08:51:35.416Z,74.43
2022-11-18T08:54:03.484Z,73.93
2022-11-18T08:56:31.549Z,73.81
2022-11-18T08:58:59.597Z,73.86
2022-11-18T09:01:27.731Z,73.72
2022-11-18T09:03:57.674Z,73.64
2022-11-18T09:06:25.593Z,73.61
2022-11-18T09:08:54.072Z,73.19
2022-11-18T09:11:24.761Z,72.86
2022-11-18T09:16:43.967Z,72.62
2022-11-18T09:19:40.002Z,72.49
2022-11-18T09:22:00.213Z,71.92
2022-11-18T09:24:28.455Z,71.82
2022-11-18T09:26:56.426Z,71.95
2022-11-18T09:29:26.487Z,71.42
2022-11-18T09:31:55.470Z,71.11
2022-11-18T09:34:23.612Z,71.17
2022-11-18T09:36:55.822Z,71.47
2022-11-18T09:39:25.373Z,71.80
2022-11-18T09:41:53.317Z,72.15
2022-11-18T09:44:58.633Z,72.41
2022-11-18T09:47:35.291Z,71.55
2022-11-18T09:50:47.443Z,70.92
2022-11-18T09:53:24.814Z,70.96
2022-11-18T09:55:54.681Z,70.99
2022-11-18T09:58:28.067Z,71.39
2022-11-18T10:00:55.751Z,70.94
2022-11-18T10:03:30.354Z,70.41
2022-11-18T10:06:15.986Z,70.85
2022-11-18T10:09:13.723Z,70.17
2022-11-18T10:11:52.787Z,70.45
2022-11-18T10:14:30.390Z,69.85
2022-11-18T10:17:10.713Z,69.69
2022-11-18T10:20:11.543Z,69.70
2022-11-18T10:22:46.380Z,69.76
2022-11-18T10:25:17.622Z,69.84
2022-11-18T10:27:47.278Z,70.01
2022-11-18T10:30:24.827Z,69.62
2022-11-18T10:33:03.034Z,69.18
2022-11-18T10:35:36.928Z,68.92
2022-11-18T10:38:18.663Z,69.21
2022-11-18T10:41:05.587Z,68.90
2022-11-18T10:43:53.236Z,68.73
2022-11-18T10:46:33.760Z,68.52
2022-11-18T10:49:10.628Z,68.72
2022-11-18T10:51:41.878Z,68.75
2022-11-18T10:54:17.506Z,68.76
2022-11-18T10:56:57.795Z,68.88
2022-11-18T10:59:38.841Z,68.35
2022-11-18T11:02:31.458Z,68.35
2022-11-18T11:05:04.756Z,68.26
2022-11-18T11:07:36.010Z,67.25
2022-11-18T11:10:06.633Z,66.96
2022-11-18T11:12:49.100Z,66.82
2022-11-18T11:15:28.938Z,66.46
2022-11-18T11:18:38.538Z,66.18
2022-11-18T11:21:19.462Z,66.54
2022-11-18T11:23:47.685Z,66.25
2022-11-18T11:29:14.247Z,65.76
2022-11-18T11:31:53.777Z,65.41
2022-11-18T11:34:47.397Z,65.03
2022-11-18T11:37:34.836Z,64.59
2022-11-18T11:40:14.959Z,63.93
2022-11-18T11:42:45.717Z,63.62
2022-11-18T11:45:44.718Z,63.54
2022-11-18T11:48:48.733Z,62.94
2022-11-18T11:51:29.487Z,62.84
2022-11-18T11:54:18.008Z,62.48
2022-11-18T11:56:57.301Z,62.76
2022-11-18T11:59:57.627Z,62.52
2022-11-18T12:03:04.176Z,63.26
2022-11-18T12:05:39.400Z,63.23
2022-11-18T12:08:14.368Z,63.36
2022-11-18T12:11:07.385Z,63.85
2022-11-18T12:13:45.317Z,63.37
2022-11-18T12:16:28.337Z,63.33
2022-11-18T12:19:31.699Z,63.52
2022-11-18T12:22:03.904Z,63.25
2022-11-18T12:24:39.976Z,63.23
2022-11-18T12:27:09.807Z,63.11
2022-11-18T12:29:50.380Z,62.86
2022-11-18T12:32:30.526Z,62.75
2022-11-18T12:35:13.388Z,62.46
2022-11-18T12:37:52.963Z,62.29
2022-11-18T12:40:33.603Z,62.70
2022-11-18T12:43:20.788Z,62.91
2022-11-18T12:45:51.403Z,63.11
2022-11-18T12:48:28.098Z,63.59
2022-11-18T12:50:58.376Z,63.76
2022-11-18T12:53:44.476Z,63.31
2022-11-18T12:56:18.537Z,63.57
2022-11-18T12:58:47.197Z,63.90
2022-11-18T13:01:18.750Z,63.71
2022-11-18T13:03:46.737Z,63.43
2022-11-18T13:06:31.366Z,63.47
2022-11-18T13:09:05.141Z,63.53
2022-11-18T13:11:45.206Z,63.37
2022-11-18T13:14:47.404Z,63.50
2022-11-18T13:17:43.096Z,63.92
2022-11-18T13:20:24.805Z,64.65
2022-11-18T13:23:14.335Z,65.05
2022-11-18T13:25:45.496Z,65.72
2022-11-18T13:28:19.264Z,66.10
2022-11-18T13:30:59.696Z,66.50
2022-11-18T13:33:27.860Z,67.33
2022-11-18T13:35:55.707Z,67.59
2022-11-18T13:38:28.435Z,67.75
2022-11-18T13:41:07.127Z,68.37
2022-11-18T13:43:36.211Z,68.41
2022-11-18T13:46:16.777Z,68.93
2022-11-18T13:48:55.551Z,69.03
2022-11-18T13:51:24.781Z,69.02
2022-11-18T13:53:52.931Z,68.81
2022-11-18T13:56:33.394Z,69.13
2022-11-18T13:59:16.763Z,69.67
2022-11-18T14:01:46.941Z,70.22
2022-11-18T14:04:25.539Z,70.87
2022-11-18T14:06:53.331Z,70.96
2022-11-18T14:09:25.672Z,71.08
2022-11-18T14:15:40.544Z,71.02
2022-11-18T14:18:35.084Z,71.27
2022-11-18T14:21:05.114Z,71.44
2022-11-18T14:23:36.259Z,71.95
2022-11-18T14:26:07.164Z,71.59
2022-11-18T14:28:38.844Z,72.00
2022-11-18T14:31:24.605Z,72.15
2022-11-18T14:34:18.337Z,72.68
2022-11-18T14:36:47.104Z,73.18
2022-11-18T14:39:30.970Z,72.83
2022-11-18T14:42:00.186Z,72.95
2022-11-18T14:44:28.857Z,72.94
2022-11-18T14:47:26.161Z,73.27
2022-11-18T14:49:53.972Z,73.86
2022-11-18T14:52:22.021Z,73.93
2022-11-18T14:54:49.671Z,74.38
2022-11-18T14:57:19.080Z,75.19
2022-11-18T14:59:46.887Z,76.47
2022-11-18T15:02:19.129Z,77.43
2022-11-18T15:04:48.392Z,77.54
2022-11-18T15:07:23.384Z,77.88
2022-11-18T15:09:51.810Z,77.85
2022-11-18T15:12:19.789Z,78.14
2022-11-18T15:14:47.469Z,77.28
2022-11-18T15:17:15.404Z,76.45
2022-11-18T15:19:43.076Z,75.95
2022-11-18T15:22:11.019Z,74.97
2022-11-18T15:24:38.639Z,75.29
2022-11-18T15:27:09.159Z,75.34
2022-11-18T15:29:36.827Z,75.45
2022-11-18T15:32:05.366Z,75.47
2022-11-18T15:34:33.114Z,75.50
2022-11-18T15:37:01.071Z,75.53
2022-11-18T15:39:28.777Z,75.23
2022-11-18T15:41:56.718Z,75.14
2022-11-18T15:44:24.931Z,75.01
2022-11-18T15:46:52.805Z,75.13
2022-11-18T15:49:20.541Z,75.16
2022-11-18T15:51:48.847Z,74.88
2022-11-18T15:54:16.977Z,74.33
2022-11-18T15:56:45.502Z,73.83
2022-11-18T15:59:14.805Z,73.62
2022-11-18T16:01:45.908Z,73.32
2022-11-18T16:04:17.524Z,73.42
2022-11-18T16:06:46.413Z,72.98
2022-11-18T16:09:15.794Z,73.14
2022-11-18T16:12:03.014Z,72.84
2022-11-18T16:14:30.705Z,73.23
2022-11-18T16:16:59.043Z,73.55
2022-11-18T16:19:28.735Z,73.15
2022-11-18T16:21:57.366Z,73.28
2022-11-18T16:24:27.714Z,73.51
2022-11-18T16:26:56.314Z,73.72
2022-11-18T16:29:25.170Z,73.22
2022-11-18T16:31:54.383Z,73.32
2022-11-18T16:34:25.372Z,73.13
2022-11-18T16:36:55.671Z,73.86
2022-11-18T16:39:26.286Z,74.21
2022-11-18T16:41:59.449Z,73.80
2022-11-18T16:44:30.175Z,74.16
2022-11-18T16:46:58.810Z,73.53
2022-11-18T16:49:27.965Z,73.79
2022-11-18T16:51:57.153Z,74.19
2022-11-18T16:54:26.980Z,74.35
2022-11-18T16:56:57.266Z,73.91
2022-11-18T16:59:28.374Z,73.65
2022-11-18T17:01:58.384Z,74.24
2022-11-18T17:04:28.196Z,73.88
2022-11-18T17:06:56.764Z,73.45
2022-11-18T17:09:25.456Z,73.53
2022-11-18T17:11:55.518Z,73.93
2022-11-18T17:14:24.457Z,73.90
2022-11-18T17:16:53.280Z,73.97
2022-11-18T17:19:23.906Z,74.46
2022-11-18T17:21:53.232Z,73.61
2022-11-18T17:24:23.226Z,73.82
2022-11-18T17:26:52.242Z,73.49
2022-11-18T17:29:20.729Z,73.00
2022-11-18T17:31:49.464Z,73.40
2022-11-18T17:34:17.728Z,72.92
2022-11-18T17:36:46.047Z,72.75
2022-11-18T17:39:13.967Z,72.56
2022-11-18T17:42:00.511Z,72.26
2022-11-18T17:44:29.729Z,72.36
2022-11-18T17:46:57.714Z,72.34
2022-11-18T17:49:25.537Z,72.60
2022-11-18T17:51:53.626Z,72.53
2022-11-18T17:54:21.840Z,72.38
2022-11-18T17:56:52.299Z,72.75
2022-11-18T17:59:21.425Z,72.50
2022-11-18T18:01:54.177Z,72.77
2022-11-18T18:04:25.419Z,72.47
2022-11-18T18:06:53.594Z,72.49
2022-11-18T18:09:30.011Z,72.87
2022-11-18T18:11:59.951Z,72.77
2022-11-18T18:14:27.673Z,72.57
2022-11-18T18:16:55.639Z,72.91
2022-11-18T18:19:24.227Z,73.48
2022-11-18T18:21:53.424Z,72.49
2022-11-18T18:24:22.006Z,72.95
2022-11-18T18:26:50.254Z,72.78
2022-11-18T18:29:21.493Z,73.16
2022-11-18T18:31:49.453Z,73.17
2022-11-18T18:34:17.845Z,72.70
2022-11-18T18:36:46.032Z,72.66
2022-11-18T18:39:13.773Z,72.48
2022-11-18T18:41:41.761Z,72.41
2022-11-18T18:44:13.719Z,71.71
2022-11-18T18:46:44.960Z,71.11
2022-11-18T18:49:15.726Z,70.81
2022-11-18T18:51:45.675Z,70.64
2022-11-18T18:54:16.072Z,70.32
2022-11-18T18:56:44.625Z,69.99
2022-11-18T18:59:12.500Z,69.46
2022-11-18T19:01:41.146Z,69.68
2022-11-18T19:04:11.309Z,69.26
2022-11-18T19:06:51.974Z,69.23
2022-11-18T19:09:25.025Z,68.96
2022-11-18T19:12:12.587Z,68.47
2022-11-18T19:14:40.516Z,68.05
2022-11-18T19:17:11.804Z,67.94
2022-11-18T19:20:00.619Z,67.67
2022-11-18T19:22:33.187Z,67.26
2022-11-18T19:25:01.556Z,67.56
2022-11-18T19:27:30.293Z,67.08
2022-11-18T19:29:58.400Z,66.83
2022-11-18T19:32:26.436Z,67.24
2022-11-18T19:34:54.238Z,67.36
2022-11-18T19:37:22.660Z,67.35
2022-11-18T19:39:50.349Z,67.21
2022-11-18T19:42:18.293Z,66.93
2022-11-18T19:44:46.498Z,67.24
2022-11-18T19:47:14.448Z,67.06
2022-11-18T19:49:42.218Z,66.79
2022-11-18T19:52:10.173Z,67.48
2022-11-18T19:54:39.296Z,67.47
2022-11-18T19:57:08.044Z,67.62
2022-11-18T19:59:35.820Z,68.01
2022-11-18T20:02:04.070Z,68.59
2022-11-18T20:04:31.810Z,68.64
2022-11-18T20:06:59.937Z,68.71
2022-11-18T20:09:27.678Z,68.35
2022-11-18T20:11:55.771Z,69.18
2022-11-18T20:14:23.488Z,69.17
2022-11-18T20:16:54.274Z,69.79
2022-11-18T20:19:22.256Z,69.89
2022-11-18T20:21:50.534Z,70.88
2022-11-18T20:24:19.189Z,70.90
2022-11-18T20:26:47.502Z,71.13
2022-11-18T20:29:15.367Z,71.20
2022-11-18T20:31:43.353Z,70.89
2022-11-18T20:34:14.447Z,71.63
2022-11-18T20:36:43.063Z,71.80
2022-11-18T20:39:17.894Z,71.94
2022-11-18T20:42:04.746Z,71.82
2022-11-18T20:44:32.475Z,71.54
2022-11-18T20:47:00.705Z,71.31
2022-11-18T20:49:28.397Z,71.53
2022-11-18T20:51:56.413Z,71.40
2022-11-18T20:54:24.042Z,71.08
2022-11-18T20:56:52.011Z,71.33
2022-11-18T20:59:19.963Z,71.51
2022-11-18T21:01:48.956Z,70.84
2022-11-18T21:04:16.707Z,70.58
2022-11-18T21:06:45.405Z,71.29
2022-11-18T21:09:14.194Z,71.34
2022-11-18T21:11:42.189Z,71.32
2022-11-18T21:14:24.399Z,71.50
2022-11-18T21:16:55.535Z,71.32
2022-11-18T21:19:23.968Z,71.45
2022-11-18T21:21:52.835Z,71.32
2022-11-18T21:24:32.265Z,70.88
2022-11-18T21:27:01.836Z,70.98
2022-11-18T21:29:31.517Z,70.83
2022-11-18T21:32:03.212Z,71.44
2022-11-18T21:34:31.357Z,70.88
2022-11-18T21:36:59.392Z,70.97
2022-11-18T21:39:27.530Z,71.39
2022-11-18T21:41:57.244Z,71.31
2022-11-18T21:44:28.524Z,70.78
2022-11-18T21:46:57.609Z,71.03
2022-11-18T21:49:25.467Z,71.21
2022-11-18T21:51:53.523Z,71.53
2022-11-18T21:54:21.268Z,71.87
2022-11-18T21:56:49.384Z,71.41
2022-11-18T21:59:17.666Z,71.91
2022-11-18T22:01:45.999Z,72.24
2022-11-18T22:04:33.784Z,71.49
2022-11-18T22:07:02.056Z,71.55
2022-11-18T22:09:34.827Z,71.88
2022-11-18T22:12:05.783Z,71.25
2022-11-18T22:14:33.693Z,71.27
2022-11-18T22:17:01.656Z,71.42
2022-11-18T22:19:29.711Z,71.53
2022-11-18T22:21:57.658Z,71.29
2022-11-18T22:24:25.764Z,71.33
2022-11-18T22:26:53.743Z,71.60
2022-11-18T22:29:21.637Z,72.39
2022-11-18T22:31:49.718Z,71.65
2022-11-18T22:34:17.436Z,71.45
2022-11-18T22:36:45.478Z,71.72
2022-11-18T22:39:13.241Z,71.06
2022-11-18T22:41:59.839Z,70.86
2022-11-18T22:44:27.591Z,71.56
2022-11-18T22:46:55.692Z,71.51
2022-11-18T22:49:23.441Z,70.97
2022-11-18T22:51:51.416Z,70.81
2022-11-18T22:57:07.608Z,70.62
2022-11-18T22:59:35.558Z,71.31
2022-11-18T23:02:04.158Z,71.45
2022-11-18T23:04:32.089Z,72.07
2022-11-18T23:07:00.265Z,71.76
2022-11-18T23:09:28.237Z,71.90
2022-11-18T23:12:14.983Z,71.61
2022-11-18T23:14:42.857Z,71.61
2022-11-18T23:17:10.836Z,72.36
2022-11-18T23:19:43.600Z,72.36
2022-11-18T23:22:12.526Z,71.98
2022-11-18T23:24:40.366Z,72.01
2022-11-18T23:27:08.519Z,72.11
2022-11-18T23:29:36.263Z,71.66
2022-11-18T23:32:04.791Z,72.01
2022-11-18T23:34:32.752Z,72.14
2022-11-18T23:37:00.685Z,72.13
2022-11-18T23:39:28.460Z,72.42
2022-11-18T23:41:56.441Z,71.98
2022-11-18T23:44:44.199Z,71.81
2022-11-18T23:47:13.002Z,71.98
2022-11-18T23:49:40.767Z,71.86
2022-11-18T23:52:08.842Z,72.28
2022-11-18T23:54:36.647Z,71.86
2022-11-18T23:57:05.473Z,72.06
2022-11-18T23:59:33.643Z,72.63
